createdAt,value
2018-07-07T10:53:58.724Z,3.27
2018-07-07T10:56:27.388Z,3.13
2018-07-07T10:58:56.503Z,2.60
2018-07-07T11:01:25.268Z,2.90
2018-07-07T11:03:55.224Z,2.50
2018-07-07T11:06:24.032Z,3.10
2018-07-07T11:08:53.846Z,3.20
2018-07-07T11:11:22.884Z,2.87
2018-07-07T11:13:51.736Z,2.80
2018-07-07T11:16:20.616Z,2.50
2018-07-07T11:18:50.416Z,2.30
2018-07-07T11:21:19.304Z,3.33
2018-07-07T11:23:48.145Z,3.20
2018-07-07T11:26:18.037Z,2.47
2018-07-07T11:28:46.872Z,2.40
2018-07-07T11:31:15.635Z,2.53
2018-07-07T11:33:44.429Z,2.07
2018-07-07T11:36:13.071Z,2.53
2018-07-07T11:38:41.741Z,2.80
2018-07-07T11:41:10.656Z,2.63
2018-07-07T11:43:40.417Z,2.83
2018-07-07T11:46:09.344Z,2.80
2018-07-07T11:48:38.336Z,2.60
2018-07-07T11:51:06.957Z,2.40
2018-07-07T11:53:35.764Z,2.10
2018-07-07T11:56:04.657Z,2.83
2018-07-07T11:58:33.525Z,2.37
2018-07-07T12:01:03.430Z,2.63
2018-07-07T12:03:32.340Z,2.20
2018-07-07T12:06:01.116Z,2.40
2018-07-07T12:08:29.931Z,2.30
2018-07-07T12:10:58.480Z,2.43
2018-07-07T12:13:27.194Z,2.33
2018-07-07T12:15:55.985Z,2.30
2018-07-07T12:18:24.872Z,2.40
2018-07-07T12:20:53.744Z,2.17
2018-07-07T12:23:22.640Z,2.23
2018-07-07T12:25:51.540Z,2.10
2018-07-07T12:28:21.428Z,2.40
2018-07-07T12:30:50.332Z,2.40
2018-07-07T12:33:19.324Z,2.00
2018-07-07T12:35:48.405Z,2.17
2018-07-07T12:38:17.208Z,2.17
2018-07-07T12:40:46.114Z,2.30
2018-07-07T12:43:14.904Z,2.60
2018-07-07T12:45:43.482Z,2.20
2018-07-07T12:48:12.181Z,2.40
2018-07-07T12:50:40.967Z,2.43
2018-07-07T12:53:09.924Z,1.97
2018-07-07T12:55:39.736Z,2.27
2018-07-07T12:58:08.560Z,1.97
2018-07-07T13:00:37.329Z,1.83
2018-07-07T13:03:06.152Z,1.90
2018-07-07T13:05:35.008Z,2.07
2018-07-07T13:08:03.788Z,1.93
2018-07-07T13:10:32.620Z,2.00
2018-07-07T13:13:01.507Z,1.97
2018-07-07T13:15:30.276Z,1.40
2018-07-07T13:17:58.848Z,2.00
2018-07-07T13:20:27.322Z,2.20
2018-07-07T13:22:55.796Z,1.70
2018-07-07T13:25:24.332Z,1.73
2018-07-07T13:27:52.748Z,1.87
2018-07-07T13:30:21.232Z,1.67
2018-07-07T13:32:49.972Z,1.43
2018-07-07T13:35:18.508Z,1.53
2018-07-07T13:37:47.248Z,1.80
2018-07-07T13:40:16.100Z,1.80
2018-07-07T13:42:44.870Z,1.43
2018-07-07T13:45:14.377Z,1.57
2018-07-07T13:47:42.803Z,1.40
2018-07-07T13:50:11.557Z,1.50
2018-07-07T13:52:40.352Z,1.70
2018-07-07T13:55:08.923Z,1.70
2018-07-07T13:57:37.648Z,1.67
2018-07-07T14:00:06.540Z,1.67
2018-07-07T14:02:35.368Z,1.33
2018-07-07T14:05:04.184Z,1.60
2018-07-07T14:07:34.108Z,1.47
2018-07-07T14:10:02.884Z,1.90
2018-07-07T14:12:31.433Z,1.40
2018-07-07T14:15:00.324Z,1.60
2018-07-07T14:17:28.975Z,1.37
2018-07-07T14:19:57.459Z,1.30
2018-07-07T14:22:26.184Z,1.40
2018-07-07T14:24:55.223Z,1.70
2018-07-07T14:27:25.025Z,1.33
2018-07-07T14:29:53.803Z,1.57
2018-07-07T14:32:22.611Z,1.20
2018-07-07T14:34:51.452Z,1.30
2018-07-07T14:37:21.251Z,1.60
2018-07-07T14:39:55.968Z,1.63
2018-07-07T14:42:44.640Z,1.57
2018-07-07T14:45:16.800Z,1.20
2018-07-07T14:47:47.019Z,1.33
2018-07-07T14:50:15.932Z,1.50
2018-07-07T14:52:45.072Z,1.30
2018-07-07T14:55:14.623Z,1.40
2018-07-07T14:57:44.107Z,1.60
2018-07-07T15:00:17.091Z,1.40
2018-07-07T15:02:46.699Z,1.33
2018-07-07T15:05:15.520Z,1.10
2018-07-07T15:07:44.579Z,1.10
2018-07-07T15:10:14.092Z,1.50
2018-07-07T15:12:43.189Z,1.20
2018-07-07T15:15:12.380Z,1.50
2018-07-07T15:17:42.187Z,1.70
2018-07-07T15:20:11.011Z,1.20
2018-07-07T15:22:39.835Z,1.20
2018-07-07T15:25:08.865Z,1.50
2018-07-07T15:27:37.694Z,1.40
2018-07-07T15:30:07.635Z,1.47
2018-07-07T15:32:36.443Z,1.53
2018-07-07T15:35:05.255Z,1.40
2018-07-07T15:37:34.104Z,1.43
2018-07-07T15:40:02.974Z,1.33
2018-07-07T15:42:31.719Z,1.37
2018-07-07T15:45:00.527Z,1.20
2018-07-07T15:47:29.307Z,1.43
2018-07-07T15:49:58.264Z,1.37
2018-07-07T15:52:27.109Z,1.77
2018-07-07T15:54:55.663Z,1.40
2018-07-07T15:57:24.348Z,1.40
2018-07-07T15:59:52.927Z,1.33
2018-07-07T16:02:21.627Z,1.40
2018-07-07T16:04:50.419Z,1.53
2018-07-07T16:07:19.199Z,1.27
2018-07-07T16:09:48.006Z,1.40
2018-07-07T16:12:16.780Z,1.30
2018-07-07T16:14:45.563Z,1.30
2018-07-07T16:17:14.383Z,1.47
2018-07-07T16:19:43.139Z,1.37
2018-07-07T16:22:11.977Z,1.70
2018-07-07T16:24:40.859Z,1.53
2018-07-07T16:27:09.599Z,1.70
2018-07-07T16:29:38.390Z,1.63
2018-07-07T16:32:07.199Z,1.87
2018-07-07T16:34:36.000Z,1.30
2018-07-07T16:37:04.831Z,1.70
2018-07-07T16:39:33.782Z,1.50
2018-07-07T16:42:02.539Z,1.40
2018-07-07T16:44:31.759Z,1.60
2018-07-07T16:47:02.447Z,1.60
2018-07-07T16:49:31.477Z,1.40
2018-07-07T16:52:00.579Z,1.43
2018-07-07T16:54:29.569Z,1.30
2018-07-07T16:56:58.447Z,1.70
2018-07-07T16:59:28.343Z,1.50
2018-07-07T17:01:57.512Z,1.40
2018-07-07T17:04:26.383Z,1.40
2018-07-07T17:06:55.156Z,1.63
2018-07-07T17:09:24.497Z,1.60
2018-07-07T17:11:53.465Z,1.60
2018-07-07T17:14:22.215Z,1.33
2018-07-07T17:16:51.320Z,1.77
2018-07-07T17:19:19.903Z,2.10
2018-07-07T17:21:48.648Z,1.63
2018-07-07T17:24:17.505Z,1.67
2018-07-07T17:26:46.864Z,1.87
2018-07-07T17:29:15.731Z,2.17
2018-07-07T17:31:45.256Z,1.97
2018-07-07T17:34:14.167Z,1.97
2018-07-07T17:36:43.236Z,2.17
2018-07-07T17:39:12.299Z,1.80
2018-07-07T17:41:41.207Z,2.23
2018-07-07T17:44:10.115Z,1.80
2018-07-07T17:46:39.775Z,1.93
2018-07-07T17:49:08.626Z,1.70
2018-07-07T17:51:37.394Z,1.90
2018-07-07T17:54:06.035Z,2.30
2018-07-07T17:56:35.463Z,1.80
2018-07-07T17:59:04.094Z,1.90
2018-07-07T18:01:32.639Z,1.93
2018-07-07T18:04:02.552Z,1.90
2018-07-07T18:06:31.428Z,2.00
2018-07-07T18:09:00.307Z,1.67
2018-07-07T18:11:29.252Z,2.07
2018-07-07T18:13:58.102Z,2.13
2018-07-07T18:16:26.903Z,1.90
2018-07-07T18:18:55.607Z,1.90
2018-07-07T18:21:24.360Z,2.10
2018-07-07T18:23:53.287Z,1.60
2018-07-07T18:26:21.984Z,1.93
2018-07-07T18:28:50.755Z,2.30
2018-07-07T18:31:19.634Z,1.90
2018-07-07T18:33:48.235Z,2.20
2018-07-07T18:36:16.991Z,2.00
2018-07-07T18:38:45.895Z,2.00
2018-07-07T18:41:14.776Z,2.30
2018-07-07T18:43:43.667Z,2.47
2018-07-07T18:46:12.531Z,2.10
2018-07-07T18:48:41.451Z,2.40
2018-07-07T18:51:10.159Z,1.97
2018-07-07T18:53:38.931Z,2.23
2018-07-07T18:56:08.886Z,1.80
2018-07-07T18:58:37.659Z,1.90
2018-07-07T19:01:06.551Z,2.73
2018-07-07T19:03:35.414Z,2.20
2018-07-07T19:06:04.282Z,2.40
2018-07-07T19:08:33.163Z,2.17
2018-07-07T19:11:02.051Z,2.20
2018-07-07T19:13:31.354Z,2.07
2018-07-07T19:16:00.196Z,2.57
2018-07-07T19:18:29.058Z,2.30
2018-07-07T19:21:03.434Z,2.30
2018-07-07T19:23:37.759Z,2.43
2018-07-07T19:26:12.054Z,2.30
2018-07-07T19:28:40.930Z,2.70
2018-07-07T19:31:09.733Z,2.30
2018-07-07T19:33:44.962Z,2.23
2018-07-07T19:36:19.310Z,2.67
2018-07-07T19:38:48.222Z,2.50
2018-07-07T19:41:17.158Z,2.70
2018-07-07T19:43:45.978Z,2.73
2018-07-07T19:46:14.583Z,2.50
2018-07-07T19:48:43.298Z,2.50
2018-07-07T19:51:11.930Z,2.40
2018-07-07T19:53:40.795Z,2.37
2018-07-07T19:56:09.702Z,2.43
2018-07-07T19:58:38.489Z,2.43
2018-07-07T20:01:07.129Z,2.40
2018-07-07T20:03:35.725Z,3.40
2018-07-07T20:06:04.449Z,2.57
2018-07-07T20:08:34.274Z,2.37
2018-07-07T20:11:03.191Z,3.03
2018-07-07T20:13:32.054Z,2.27
2018-07-07T20:16:10.546Z,2.70
2018-07-07T20:18:44.829Z,2.70
2018-07-07T20:21:50.766Z,2.63
2018-07-07T20:24:22.359Z,3.07
2018-07-07T20:26:56.278Z,2.80
2018-07-07T20:29:24.778Z,2.23
2018-07-07T20:31:54.488Z,2.40
2018-07-07T20:34:24.459Z,2.47
2018-07-07T20:36:53.746Z,2.37
2018-07-07T20:39:22.827Z,2.90
2018-07-07T20:41:52.466Z,2.70
2018-07-07T20:44:21.329Z,2.90
2018-07-07T20:46:50.413Z,2.37
2018-07-07T20:49:20.270Z,2.70
2018-07-07T20:51:49.133Z,2.60
2018-07-07T20:54:18.025Z,2.83
2018-07-07T20:56:46.951Z,3.07
2018-07-07T20:59:15.553Z,2.97
2018-07-07T21:01:44.404Z,2.50
2018-07-07T21:04:13.361Z,2.47
2018-07-07T21:06:42.245Z,3.27
2018-07-07T21:09:11.142Z,2.87
2018-07-07T21:11:40.050Z,2.63
2018-07-07T21:14:08.946Z,2.83
2018-07-07T21:16:37.574Z,2.90
2018-07-07T21:19:06.033Z,2.90
2018-07-07T21:21:34.513Z,2.80
2018-07-07T21:24:03.034Z,2.93
2018-07-07T21:26:31.791Z,3.00
2018-07-07T21:29:01.606Z,2.60
2018-07-07T21:31:30.490Z,2.60
2018-07-07T21:33:59.300Z,2.63
2018-07-07T21:36:28.367Z,3.50
2018-07-07T21:38:57.198Z,3.30
2018-07-07T21:41:26.050Z,3.40
2018-07-07T21:43:54.642Z,2.80
2018-07-07T21:46:23.494Z,3.20
2018-07-07T21:48:52.358Z,3.10
2018-07-07T21:51:21.254Z,3.20
2018-07-07T21:53:50.534Z,3.10
2018-07-07T21:56:19.218Z,3.10
2018-07-07T21:58:52.314Z,3.13
2018-07-07T22:01:58.382Z,3.10
2018-07-07T22:04:32.710Z,3.83
2018-07-07T22:07:11.961Z,3.30
2018-07-07T22:09:40.838Z,3.50
2018-07-07T22:12:09.618Z,3.53
2018-07-07T22:14:38.479Z,3.70
2018-07-07T22:17:07.375Z,3.40
2018-07-07T22:19:36.229Z,3.30
2018-07-07T22:22:06.949Z,3.07
2018-07-07T22:24:35.953Z,3.10
2018-07-07T22:27:06.829Z,3.93
2018-07-07T22:29:35.801Z,4.40
2018-07-07T22:32:05.882Z,4.10
2018-07-07T22:34:37.585Z,3.90
2018-07-07T22:37:06.231Z,2.80
2018-07-07T22:39:39.978Z,3.50
2018-07-07T22:42:10.197Z,3.73
2018-07-07T22:44:40.097Z,3.50
2018-07-07T22:47:08.899Z,3.67
2018-07-07T22:49:37.491Z,3.30
2018-07-07T22:52:06.685Z,3.63
2018-07-07T22:54:36.561Z,4.03
2018-07-07T22:57:05.461Z,3.33
2018-07-07T22:59:34.314Z,4.00
2018-07-07T23:02:03.178Z,4.20
2018-07-07T23:04:32.529Z,4.27
2018-07-07T23:07:01.121Z,4.00
2018-07-07T23:09:29.873Z,4.27
2018-07-07T23:11:58.793Z,4.30
2018-07-07T23:14:27.713Z,3.60
2018-07-07T23:16:58.405Z,3.87
2018-07-07T23:19:27.425Z,3.77
2018-07-07T23:21:56.689Z,4.17
2018-07-07T23:24:25.361Z,4.40
2018-07-07T23:26:54.937Z,3.90
2018-07-07T23:29:23.729Z,3.90
2018-07-07T23:31:52.297Z,4.00
2018-07-07T23:34:22.086Z,4.10
2018-07-07T23:36:50.953Z,4.17
2018-07-07T23:39:19.814Z,3.63
2018-07-07T23:41:48.720Z,3.80
2018-07-07T23:44:17.605Z,4.90
2018-07-07T23:46:46.514Z,4.10
2018-07-07T23:49:15.137Z,3.90
2018-07-07T23:51:43.973Z,4.30
2018-07-07T23:54:12.873Z,4.63
2018-07-07T23:56:41.485Z,4.30
2018-07-07T23:59:10.237Z,4.10
